sensor_id;sensor_type;location;lat;lon;timestamp;pressure;altitude;pressure_sealevel;temperature;humidity
14295;BME280;7231;59.370;18.016;2022-11-20T00:01:07;101528.25;;;0.31;100.00
14295;BME280;7231;59.370;18.016;2022-11-20T00:03:37;101521.84;;;0.26;100.00
14295;BME280;7231;59.370;18.016;2022-11-20T00:06:06;101540.88;;;0.39;100.00
14295;BME280;7231;59.370;18.016;2022-11-20T00:08:35;101536.91;;;0.32;100.00
14295;BME280;7231;59.370;18.016;2022-11-20T00:11:04;101525.28;;;0.37;100.00
14295;BME280;7231;59.370;18.016;2022-11-20T00:13:35;101523.22;;;0.33;100.00
14295;BME280;7231;59.370;18.016;2022-11-20T00:16:06;101485.16;;;0.09;100.00
14295;BME280;7231;59.370;18.016;2022-11-20T00:18:34;101526.34;;;0.29;100.00
14295;BME280;7231;59.370;18.016;2022-11-20T00:21:05;101444.34;;;-0.19;100.00
14295;BME280;7231;59.370;18.016;2022-11-20T00:23:33;101518.47;;;0.27;100.00
14295;BME280;7231;59.370;18.016;2022-11-20T00:26:02;101522.84;;;0.28;100.00
14295;BME280;7231;59.370;18.016;2022-11-20T00:28:31;101521.19;;;0.29;100.00
14295;BME280;7231;59.370;18.016;2022-11-20T00:31:03;101518.22;;;0.24;100.00
14295;BME280;7231;59.370;18.016;2022-11-20T00:33:31;101492.00;;;0.08;100.00
14295;BME280;7231;59.370;18.016;2022-11-20T00:36:00;101516.91;;;0.29;100.00
14295;BME280;7231;59.370;18.016;2022-11-20T00:38:30;101515.38;;;0.31;100.00
14295;BME280;7231;59.370;18.016;2022-11-20T00:40:59;101510.22;;;0.31;100.00
14295;BME280;7231;59.370;18.016;2022-11-20T00:43:28;101493.88;;;0.21;100.00
14295;BME280;7231;59.370;18.016;2022-11-20T00:45:57;101510.22;;;0.31;100.00
14295;BME280;7231;59.370;18.016;2022-11-20T00:48:25;101499.88;;;0.31;100.00
14295;BME280;7231;59.370;18.016;2022-11-20T00:50:54;101490.00;;;0.26;100.00
14295;BME280;7231;59.370;18.016;2022-11-20T00:53:23;101492.94;;;0.30;100.00
14295;BME280;7231;59.370;18.016;2022-11-20T00:55:56;101490.34;;;0.30;100.00
14295;BME280;7231;59.370;18.016;2022-11-20T00:58:28;101445.59;;;0.08;100.00
14295;BME280;7231;59.370;18.016;2022-11-20T01:01:00;101484.28;;;0.30;100.00
14295;BME280;7231;59.370;18.016;2022-11-20T01:03:31;101485.97;;;0.29;100.00
14295;BME280;7231;59.370;18.016;2022-11-20T01:06:02;101482.63;;;0.30;100.00
14295;BME280;7231;59.370;18.016;2022-11-20T01:08:31;101352.59;;;-0.49;100.00
14295;BME280;7231;59.370;18.016;2022-11-20T01:11:02;101471.41;;;0.30;100.00
14295;BME280;7231;59.370;18.016;2022-11-20T01:13:32;101471.41;;;0.30;100.00
14295;BME280;7231;59.370;18.016;2022-11-20T01:16:07;101473.19;;;0.31;100.00
14295;BME280;7231;59.370;18.016;2022-11-20T01:18:36;101479.25;;;0.31;100.00
14295;BME280;7231;59.370;18.016;2022-11-20T01:21:06;101475.91;;;0.32;100.00
14295;BME280;7231;59.370;18.016;2022-11-20T01:23:36;101469.72;;;0.30;100.00
14295;BME280;7231;59.370;18.016;2022-11-20T01:26:07;101474.09;;;0.31;100.00
14295;BME280;7231;59.370;18.016;2022-11-20T01:28:36;101452.50;;;0.19;100.00
14295;BME280;7231;59.370;18.016;2022-11-20T01:31:11;101471.41;;;0.30;100.00
14295;BME280;7231;59.370;18.016;2022-11-20T01:33:40;101466.25;;;0.30;100.00
14295;BME280;7231;59.370;18.016;2022-11-20T01:36:09;101461.84;;;0.29;100.00
14295;BME280;7231;59.370;18.016;2022-11-20T01:38:38;101449.38;;;0.23;100.00
14295;BME280;7231;59.370;18.016;2022-11-20T01:41:08;101450.63;;;0.28;100.00
14295;BME280;7231;59.370;18.016;2022-11-20T01:43:37;101449.88;;;0.29;100.00
14295;BME280;7231;59.370;18.016;2022-11-20T01:46:14;101447.94;;;0.27;100.00
14295;BME280;7231;59.370;18.016;2022-11-20T01:48:48;101442.78;;;0.27;100.00
14295;BME280;7231;59.370;18.016;2022-11-20T01:51:24;101425.81;;;0.19;100.00
14295;BME280;7231;59.370;18.016;2022-11-20T01:53:55;101420.91;;;0.22;100.00
14295;BME280;7231;59.370;18.016;2022-11-20T01:56:27;101428.75;;;0.23;100.00
14295;BME280;7231;59.370;18.016;2022-11-20T01:58:59;101425.41;;;0.24;100.00
14295;BME280;7231;59.370;18.016;2022-11-20T02:01:29;101425.41;;;0.24;100.00
14295;BME280;7231;59.370;18.016;2022-11-20T02:03:58;101424.50;;;0.24;100.00
14295;BME280;7231;59.370;18.016;2022-11-20T02:06:29;101418.44;;;0.23;100.00
14295;BME280;7231;59.370;18.016;2022-11-20T02:08:58;101409.13;;;0.25;100.00
14295;BME280;7231;59.370;18.016;2022-11-20T02:11:27;101410.69;;;0.23;100.00
14295;BME280;7231;59.370;18.016;2022-11-20T02:13:57;101412.38;;;0.23;100.00
14295;BME280;7231;59.370;18.016;2022-11-20T02:16:27;101400.44;;;0.13;100.00
14295;BME280;7231;59.370;18.016;2022-11-20T02:18:58;101407.88;;;0.20;100.00
14295;BME280;7231;59.370;18.016;2022-11-20T02:21:34;101378.56;;;0.08;100.00
14295;BME280;7231;59.370;18.016;2022-11-20T02:24:08;101346.47;;;-0.07;100.00
14295;BME280;7231;59.370;18.016;2022-11-20T02:26:43;101394.97;;;0.20;100.00
14295;BME280;7231;59.370;18.016;2022-11-20T02:29:12;101387.25;;;0.20;100.00
14295;BME280;7231;59.370;18.016;2022-11-20T02:31:42;101328.28;;;-0.09;100.00
14295;BME280;7231;59.370;18.016;2022-11-20T02:34:11;101384.44;;;0.17;100.00
14295;BME280;7231;59.370;18.016;2022-11-20T02:36:40;101377.47;;;0.16;100.00
14295;BME280;7231;59.370;18.016;2022-11-20T02:39:11;101363.56;;;0.14;100.00
14295;BME280;7231;59.370;18.016;2022-11-20T02:41:43;101374.78;;;0.15;100.00
14295;BME280;7231;59.370;18.016;2022-11-20T02:44:12;101364.59;;;0.16;100.00
14295;BME280;7231;59.370;18.016;2022-11-20T02:46:40;101369.50;;;0.13;100.00
14295;BME280;7231;59.370;18.016;2022-11-20T02:49:07;101358.16;;;0.11;100.00
14295;BME280;7231;59.370;18.016;2022-11-20T02:51:36;101364.47;;;0.15;100.00
14295;BME280;7231;59.370;18.016;2022-11-20T02:54:03;101359.31;;;0.15;100.00
14295;BME280;7231;59.370;18.016;2022-11-20T02:56:33;101358.53;;;0.16;100.00
14295;BME280;7231;59.370;18.016;2022-11-20T02:59:01;101341.25;;;0.15;100.00
14295;BME280;7231;59.370;18.016;2022-11-20T03:01:29;101355.84;;;0.14;100.00
14295;BME280;7231;59.370;18.016;2022-11-20T03:03:56;101355.84;;;0.14;100.00
14295;BME280;7231;59.370;18.016;2022-11-20T03:06:24;101321.25;;;0.00;100.00
14295;BME280;7231;59.370;18.016;2022-11-20T03:08:53;101353.50;;;0.17;100.00
14295;BME280;7231;59.370;18.016;2022-11-20T03:11:20;101343.16;;;0.17;100.00
14295;BME280;7231;59.370;18.016;2022-11-20T03:13:50;101332.38;;;0.11;100.00
14295;BME280;7231;59.370;18.016;2022-11-20T03:16:19;101331.38;;;0.09;100.00
14295;BME280;7231;59.370;18.016;2022-11-20T03:18:48;101337.78;;;0.14;100.00
14295;BME280;7231;59.370;18.016;2022-11-20T03:21:16;101328.91;;;0.11;100.00
14295;BME280;7231;59.370;18.016;2022-11-20T03:23:44;101342.81;;;0.13;100.00
14295;BME280;7231;59.370;18.016;2022-11-20T03:26:14;101337.66;;;0.13;100.00
14295;BME280;7231;59.370;18.016;2022-11-20T03:28:47;101334.19;;;0.12;100.00
14295;BME280;7231;59.370;18.016;2022-11-20T03:31:19;101297.50;;;-0.07;100.00
14295;BME280;7231;59.370;18.016;2022-11-20T03:33:47;101323.88;;;0.12;100.00
14295;BME280;7231;59.370;18.016;2022-11-20T03:36:17;101322.06;;;0.11;100.00
14295;BME280;7231;59.370;18.016;2022-11-20T03:38:46;101304.91;;;0.00;100.00
14295;BME280;7231;59.370;18.016;2022-11-20T03:41:17;101253.28;;;-0.23;100.00
14295;BME280;7231;59.370;18.016;2022-11-20T03:43:47;101290.66;;;-0.07;100.00
14295;BME280;7231;59.370;18.016;2022-11-20T03:46:17;101309.97;;;0.10;100.00
14295;BME280;7231;59.370;18.016;2022-11-20T03:48:45;101307.38;;;0.10;100.00
14295;BME280;7231;59.370;18.016;2022-11-20T03:51:18;101303.00;;;0.09;100.00
14295;BME280;7231;59.370;18.016;2022-11-20T03:53:48;101292.88;;;0.00;100.00
14295;BME280;7231;59.370;18.016;2022-11-20T03:56:18;101291.13;;;-0.01;100.00
14295;BME280;7231;59.370;18.016;2022-11-20T03:58:46;101263.38;;;-0.15;100.00
14295;BME280;7231;59.370;18.016;2022-11-20T04:01:17;101280.00;;;0.00;100.00
14295;BME280;7231;59.370;18.016;2022-11-20T04:03:46;101281.13;;;0.04;100.00
14295;BME280;7231;59.370;18.016;2022-11-20T04:06:16;101286.53;;;0.07;100.00
14295;BME280;7231;59.370;18.016;2022-11-20T04:08:45;101283.94;;;0.07;100.00
14295;BME280;7231;59.370;18.016;2022-11-20T04:11:21;101282.94;;;0.05;100.00
14295;BME280;7231;59.370;18.016;2022-11-20T04:13:51;101282.94;;;0.05;100.00
14295;BME280;7231;59.370;18.016;2022-11-20T04:16:21;101280.34;;;0.05;100.00
14295;BME280;7231;59.370;18.016;2022-11-20T04:18:51;101267.81;;;-0.02;100.00
14295;BME280;7231;59.370;18.016;2022-11-20T04:21:20;101241.88;;;-0.15;100.00
14295;BME280;7231;59.370;18.016;2022-11-20T04:23:48;101273.28;;;0.03;100.00
14295;BME280;7231;59.370;18.016;2022-11-20T04:26:16;101245.59;;;-0.12;100.00
14295;BME280;7231;59.370;18.016;2022-11-20T04:28:44;101252.00;;;-0.07;100.00
14295;BME280;7231;59.370;18.016;2022-11-20T04:31:13;101263.09;;;0.04;100.00
14295;BME280;7231;59.370;18.016;2022-11-20T04:33:43;101261.16;;;0.02;100.00
14295;BME280;7231;59.370;18.016;2022-11-20T04:36:13;101238.09;;;-0.09;100.00
14295;BME280;7231;59.370;18.016;2022-11-20T04:38:41;101243.03;;;0.00;100.00
14295;BME280;7231;59.370;18.016;2022-11-20T04:41:14;101234.28;;;-0.02;100.00
14295;BME280;7231;59.370;18.016;2022-11-20T04:43:46;101210.94;;;-0.15;100.00
14295;BME280;7231;59.370;18.016;2022-11-20T04:46:15;101243.03;;;0.00;100.00
14295;BME280;7231;59.370;18.016;2022-11-20T04:48:45;101228.44;;;0.00;100.00
14295;BME280;7231;59.370;18.016;2022-11-20T04:51:14;101243.03;;;0.00;100.00
14295;BME280;7231;59.370;18.016;2022-11-20T04:53:42;101230.25;;;0.02;100.00
14295;BME280;7231;59.370;18.016;2022-11-20T04:56:12;101229.13;;;-0.02;100.00
14295;BME280;7231;59.370;18.016;2022-11-20T04:58:40;101229.44;;;0.03;100.00
14295;BME280;7231;59.370;18.016;2022-11-20T05:01:10;101228.56;;;0.02;100.00
14295;BME280;7231;59.370;18.016;2022-11-20T05:03:40;101145.63;;;-0.49;100.00
14295;BME280;7231;59.370;18.016;2022-11-20T05:06:15;101225.44;;;0.06;100.00
14295;BME280;7231;59.370;18.016;2022-11-20T05:08:43;101217.28;;;0.00;100.00
14295;BME280;7231;59.370;18.016;2022-11-20T05:11:12;101205.03;;;-0.03;100.00
14295;BME280;7231;59.370;18.016;2022-11-20T05:13:41;101211.28;;;0.01;100.00
14295;BME280;7231;59.370;18.016;2022-11-20T05:16:11;101212.97;;;0.00;100.00
14295;BME280;7231;59.370;18.016;2022-11-20T05:18:40;101212.97;;;0.00;100.00
14295;BME280;7231;59.370;18.016;2022-11-20T05:21:10;101192.69;;;-0.07;100.00
14295;BME280;7231;59.370;18.016;2022-11-20T05:23:39;101208.53;;;-0.02;100.00
14295;BME280;7231;59.370;18.016;2022-11-20T05:26:13;101209.84;;;0.05;100.00
14295;BME280;7231;59.370;18.016;2022-11-20T05:28:41;101191.03;;;-0.06;100.00
14295;BME280;7231;59.370;18.016;2022-11-20T05:31:10;101213.44;;;0.07;100.00
14295;BME280;7231;59.370;18.016;2022-11-20T05:33:40;101204.03;;;0.07;100.00
14295;BME280;7231;59.370;18.016;2022-11-20T05:36:10;101205.81;;;0.08;100.00
14295;BME280;7231;59.370;18.016;2022-11-20T05:38:39;101188.66;;;0.09;100.00
14295;BME280;7231;59.370;18.016;2022-11-20T05:41:09;101191.38;;;0.10;100.00
14295;BME280;7231;59.370;18.016;2022-11-20T05:43:38;101192.16;;;0.09;100.00
14295;BME280;7231;59.370;18.016;2022-11-20T05:46:08;101169.25;;;0.02;100.00
14295;BME280;7231;59.370;18.016;2022-11-20T05:48:37;101183.63;;;0.10;100.00
14295;BME280;7231;59.370;18.016;2022-11-20T05:51:08;101187.09;;;0.11;100.00
14295;BME280;7231;59.370;18.016;2022-11-20T05:53:37;101175.91;;;0.10;100.00
14295;BME280;7231;59.370;18.016;2022-11-20T05:56:15;101175.09;;;0.11;100.00
14295;BME280;7231;59.370;18.016;2022-11-20T05:58:44;101142.72;;;-0.09;100.00
14295;BME280;7231;59.370;18.016;2022-11-20T06:01:15;101186.44;;;0.13;100.00
14295;BME280;7231;59.370;18.016;2022-11-20T06:03:44;101189.78;;;0.12;100.00
14295;BME280;7231;59.370;18.016;2022-11-20T06:06:15;101176.91;;;0.12;100.00
14295;BME280;7231;59.370;18.016;2022-11-20T06:08:44;101170.06;;;0.13;100.00
14295;BME280;7231;59.370;18.016;2022-11-20T06:11:13;101162.22;;;0.11;100.00
14295;BME280;7231;59.370;18.016;2022-11-20T06:13:42;101163.00;;;0.10;100.00
14295;BME280;7231;59.370;18.016;2022-11-20T06:16:12;101163.00;;;0.10;100.00
14295;BME280;7231;59.370;18.016;2022-11-20T06:18:41;101175.00;;;0.10;100.00
14295;BME280;7231;59.370;18.016;2022-11-20T06:21:11;101169.06;;;0.11;100.00
14295;BME280;7231;59.370;18.016;2022-11-20T06:23:39;101171.75;;;0.12;100.00
14295;BME280;7231;59.370;18.016;2022-11-20T06:26:11;101160.75;;;0.03;100.00
14295;BME280;7231;59.370;18.016;2022-11-20T06:28:39;101176.91;;;0.12;100.00
14295;BME280;7231;59.370;18.016;2022-11-20T06:31:10;101146.19;;;0.04;100.00
14295;BME280;7231;59.370;18.016;2022-11-20T06:33:38;101161.44;;;0.12;100.00
14295;BME280;7231;59.370;18.016;2022-11-20T06:36:07;101108.66;;;-0.16;100.00
14295;BME280;7231;59.370;18.016;2022-11-20T06:38:38;101150.34;;;0.13;100.00
14295;BME280;7231;59.370;18.016;2022-11-20T06:41:06;101149.09;;;0.08;100.00
14295;BME280;7231;59.370;18.016;2022-11-20T06:43:36;101154.72;;;0.14;100.00
14295;BME280;7231;59.370;18.016;2022-11-20T06:46:04;101149.56;;;0.14;100.00
14295;BME280;7231;59.370;18.016;2022-11-20T06:48:32;101152.13;;;0.14;100.00
14295;BME280;7231;59.370;18.016;2022-11-20T06:51:02;101146.19;;;0.15;100.00
14295;BME280;7231;59.370;18.016;2022-11-20T06:53:30;101141.94;;;0.16;100.00
14295;BME280;7231;59.370;18.016;2022-11-20T06:55:59;101136.66;;;0.14;100.00
14295;BME280;7231;59.370;18.016;2022-11-20T06:58:28;101120.41;;;0.15;100.00
14295;BME280;7231;59.370;18.016;2022-11-20T07:00:59;101130.59;;;0.14;100.00
14295;BME280;7231;59.370;18.016;2022-11-20T07:03:27;101132.28;;;0.13;100.00
14295;BME280;7231;59.370;18.016;2022-11-20T07:05:56;101145.06;;;0.12;100.00
14295;BME280;7231;59.370;18.016;2022-11-20T07:08:24;101141.72;;;0.13;100.00
14295;BME280;7231;59.370;18.016;2022-11-20T07:10:52;101120.19;;;0.00;100.00
14295;BME280;7231;59.370;18.016;2022-11-20T07:13:21;101141.81;;;0.14;100.00
14295;BME280;7231;59.370;18.016;2022-11-20T07:15:49;101135.66;;;0.12;100.00
14295;BME280;7231;59.370;18.016;2022-11-20T07:18:18;101134.09;;;0.14;100.00
14295;BME280;7231;59.370;18.016;2022-11-20T07:20:46;101135.88;;;0.15;100.00
14295;BME280;7231;59.370;18.016;2022-11-20T07:23:14;101133.41;;;0.17;100.00
14295;BME280;7231;59.370;18.016;2022-11-20T07:25:42;101129.16;;;0.17;100.00
14295;BME280;7231;59.370;18.016;2022-11-20T07:28:11;101110.88;;;0.14;100.00
14295;BME280;7231;59.370;18.016;2022-11-20T07:30:40;101118.16;;;0.20;100.00
14295;BME280;7231;59.370;18.016;2022-11-20T07:33:08;101117.50;;;0.22;100.00
14295;BME280;7231;59.370;18.016;2022-11-20T07:35:37;101107.19;;;0.22;100.00
14295;BME280;7231;59.370;18.016;2022-11-20T07:38:05;101113.25;;;0.23;100.00
14295;BME280;7231;59.370;18.016;2022-11-20T07:40:33;101098.22;;;0.17;100.00
14295;BME280;7231;59.370;18.016;2022-11-20T07:43:01;101105.84;;;0.27;100.00
14295;BME280;7231;59.370;18.016;2022-11-20T07:45:29;101110.22;;;0.28;100.00
14295;BME280;7231;59.370;18.016;2022-11-20T07:47:57;101112.00;;;0.29;100.00
14295;BME280;7231;59.370;18.016;2022-11-20T07:50:24;101107.06;;;0.32;100.00
14295;BME280;7231;59.370;18.016;2022-11-20T07:53:00;101100.22;;;0.33;100.00
14295;BME280;7231;59.370;18.016;2022-11-20T07:55:29;101103.81;;;0.35;100.00
14295;BME280;7231;59.370;18.016;2022-11-20T07:57:57;101093.59;;;0.37;100.00
14295;BME280;7231;59.370;18.016;2022-11-20T08:00:26;101098.09;;;0.39;100.00
14295;BME280;7231;59.370;18.016;2022-11-20T08:02:54;101087.78;;;0.39;100.00
14295;BME280;7231;59.370;18.016;2022-11-20T08:05:22;101078.34;;;0.40;100.00
14295;BME280;7231;59.370;18.016;2022-11-20T08:07:51;101078.56;;;0.43;100.00
14295;BME280;7231;59.370;18.016;2022-11-20T08:10:20;101074.41;;;0.45;100.00
14295;BME280;7231;59.370;18.016;2022-11-20T08:12:50;101072.84;;;0.47;100.00
14295;BME280;7231;59.370;18.016;2022-11-20T08:15:36;101057.25;;;0.45;100.00
14295;BME280;7231;59.370;18.016;2022-11-20T08:18:06;101054.25;;;0.39;100.00
14295;BME280;7231;59.370;18.016;2022-11-20T08:20:53;101069.47;;;0.48;100.00
14295;BME280;7231;59.370;18.016;2022-11-20T08:23:22;101067.00;;;0.49;100.00
14295;BME280;7231;59.370;18.016;2022-11-20T08:25:52;101064.53;;;0.51;100.00
14295;BME280;7231;59.370;18.016;2022-11-20T08:28:20;101025.09;;;0.28;100.00
14295;BME280;7231;59.370;18.016;2022-11-20T08:30:48;101063.88;;;0.53;100.00
14295;BME280;7231;59.370;18.016;2022-11-20T08:33:17;101048.28;;;0.52;100.00
14295;BME280;7231;59.370;18.016;2022-11-20T08:35:45;101037.16;;;0.53;100.00
14295;BME280;7231;59.370;18.016;2022-11-20T08:38:13;101027.31;;;0.47;100.00
14295;BME280;7231;59.370;18.016;2022-11-20T08:40:41;101039.81;;;0.66;100.00
14295;BME280;7231;59.370;18.016;2022-11-20T08:43:30;101041.84;;;0.70;100.00
14295;BME280;7231;59.370;18.016;2022-11-20T08:45:58;101031.50;;;0.70;100.00
14295;BME280;7231;59.370;18.016;2022-11-20T08:48:26;101040.03;;;0.69;100.00
14295;BME280;7231;59.370;18.016;2022-11-20T08:50:57;101028.13;;;0.71;100.00
14295;BME280;7231;59.370;18.016;2022-11-20T08:53:25;101024.78;;;0.72;100.00
14295;BME280;7231;59.370;18.016;2022-11-20T08:55:53;101022.19;;;0.72;100.00
14295;BME280;7231;59.370;18.016;2022-11-20T08:58:22;101019.63;;;0.72;100.00
14295;BME280;7231;59.370;18.016;2022-11-20T09:00:51;101022.19;;;0.72;100.00
14295;BME280;7231;59.370;18.016;2022-11-20T09:03:19;101023.19;;;0.74;100.00
14295;BME280;7231;59.370;18.016;2022-11-20T09:05:47;101012.88;;;0.74;100.00
14295;BME280;7231;59.370;18.016;2022-11-20T09:08:15;101014.66;;;0.75;100.00
14295;BME280;7231;59.370;18.016;2022-11-20T09:10:43;101013.88;;;0.76;100.00
14295;BME280;7231;59.370;18.016;2022-11-20T09:13:11;101007.03;;;0.77;100.00
14295;BME280;7231;59.370;18.016;2022-11-20T09:15:39;100994.59;;;0.71;100.00
14295;BME280;7231;59.370;18.016;2022-11-20T09:18:08;101012.41;;;0.80;100.00
14295;BME280;7231;59.370;18.016;2022-11-20T09:20:36;101004.75;;;0.81;100.00
14295;BME280;7231;59.370;18.016;2022-11-20T09:23:04;101010.81;;;0.82;100.00
14295;BME280;7231;59.370;18.016;2022-11-20T09:25:32;101002.19;;;0.81;100.00
14295;BME280;7231;59.370;18.016;2022-11-20T09:28:00;100994.53;;;0.83;100.00
14295;BME280;7231;59.370;18.016;2022-11-20T09:30:28;101003.19;;;0.83;100.00
14295;BME280;7231;59.370;18.016;2022-11-20T09:32:55;100989.38;;;0.83;100.00
14295;BME280;7231;59.370;18.016;2022-11-20T09:35:25;100990.38;;;0.85;100.00
14295;BME280;7231;59.370;18.016;2022-11-20T09:37:53;100987.91;;;0.86;100.00
14295;BME280;7231;59.370;18.016;2022-11-20T09:40:23;100957.69;;;0.72;100.00
14295;BME280;7231;59.370;18.016;2022-11-20T09:42:55;100980.06;;;0.85;100.00
14295;BME280;7231;59.370;18.016;2022-11-20T09:45:35;100964.06;;;0.77;100.00
14295;BME280;7231;59.370;18.016;2022-11-20T09:48:18;100984.97;;;0.93;100.00
14295;BME280;7231;59.370;18.016;2022-11-20T09:50:52;100973.94;;;0.96;100.00
14295;BME280;7231;59.370;18.016;2022-11-20T09:53:29;100963.63;;;0.96;100.00
14295;BME280;7231;59.370;18.016;2022-11-20T09:56:01;100955.66;;;0.93;100.00
14295;BME280;7231;59.370;18.016;2022-11-20T09:58:33;100956.88;;;0.98;100.00
14295;BME280;7231;59.370;18.016;2022-11-20T10:01:09;100954.41;;;1.00;100.00
14295;BME280;7231;59.370;18.016;2022-11-20T10:03:47;100957.66;;;0.97;100.00
14295;BME280;7231;59.370;18.016;2022-11-20T10:06:21;100963.25;;;1.03;100.00
14295;BME280;7231;59.370;18.016;2022-11-20T10:08:58;100929.13;;;0.82;100.00
14295;BME280;7231;59.370;18.016;2022-11-20T10:11:39;100937.31;;;1.02;100.00
14295;BME280;7231;59.370;18.016;2022-11-20T10:14:17;100936.22;;;0.98;100.00
14295;BME280;7231;59.370;18.016;2022-11-20T10:16:58;100931.75;;;0.95;100.00
14295;BME280;7231;59.370;18.016;2022-11-20T10:19:46;100917.03;;;0.94;100.00
14295;BME280;7231;59.370;18.016;2022-11-20T10:22:27;100916.16;;;0.94;100.00
14295;BME280;7231;59.370;18.016;2022-11-20T10:25:04;100904.63;;;0.89;100.00
14295;BME280;7231;59.370;18.016;2022-11-20T10:27:56;100919.53;;;0.93;100.00
14295;BME280;7231;59.370;18.016;2022-11-20T10:30:29;100919.53;;;0.93;100.00
14295;BME280;7231;59.370;18.016;2022-11-20T10:33:00;100911.78;;;0.93;100.00
14295;BME280;7231;59.370;18.016;2022-11-20T10:35:35;100910.19;;;0.95;100.00
14295;BME280;7231;59.370;18.016;2022-11-20T10:38:12;100909.31;;;0.94;100.00
14295;BME280;7231;59.370;18.016;2022-11-20T10:40:46;100906.72;;;0.94;100.00
14295;BME280;7231;59.370;18.016;2022-11-20T10:43:18;100897.19;;;0.93;100.00
14295;BME280;7231;59.370;18.016;2022-11-20T10:45:52;100897.19;;;0.93;100.00
14295;BME280;7231;59.370;18.016;2022-11-20T10:48:24;100898.09;;;0.94;100.00
14295;BME280;7231;59.370;18.016;2022-11-20T10:51:08;100850.66;;;0.67;100.00
14295;BME280;7231;59.370;18.016;2022-11-20T10:53:53;100852.47;;;0.68;100.00
14295;BME280;7231;59.370;18.016;2022-11-20T10:56:26;100887.75;;;0.94;100.00
14295;BME280;7231;59.370;18.016;2022-11-20T10:59:10;100890.44;;;0.95;100.00
14295;BME280;7231;59.370;18.016;2022-11-20T11:01:41;100882.50;;;0.92;100.00
14295;BME280;7231;59.370;18.016;2022-11-20T11:04:23;100885.47;;;0.98;100.00
14295;BME280;7231;59.370;18.016;2022-11-20T11:06:57;100878.72;;;1.01;100.00
14295;BME280;7231;59.370;18.016;2022-11-20T11:09:33;100746.13;;;0.34;100.00
14295;BME280;7231;59.370;18.016;2022-11-20T11:12:06;100858.28;;;1.04;100.00
14295;BME280;7231;59.370;18.016;2022-11-20T11:14:42;100860.06;;;1.05;100.00
14295;BME280;7231;59.370;18.016;2022-11-20T11:17:23;100855.00;;;1.06;100.00
14295;BME280;7231;59.370;18.016;2022-11-20T11:20:00;100849.84;;;1.06;100.00
14295;BME280;7231;59.370;18.016;2022-11-20T11:22:30;100843.00;;;1.07;100.00
14295;BME280;7231;59.370;18.016;2022-11-20T11:25:00;100842.19;;;1.08;100.00
14295;BME280;7231;59.370;18.016;2022-11-20T11:27:28;100843.88;;;1.07;100.00
14295;BME280;7231;59.370;18.016;2022-11-20T11:30:13;100815.56;;;0.95;100.00
14295;BME280;7231;59.370;18.016;2022-11-20T11:32:41;100834.44;;;1.08;100.00
14295;BME280;7231;59.370;18.016;2022-11-20T11:35:21;100825.00;;;1.08;100.00
14295;BME280;7231;59.370;18.016;2022-11-20T11:37:50;100816.38;;;1.08;100.00
14295;BME280;7231;59.370;18.016;2022-11-20T11:40:23;100814.78;;;1.10;100.00
14295;BME280;7231;59.370;18.016;2022-11-20T11:42:57;100806.94;;;1.08;100.00
14295;BME280;7231;59.370;18.016;2022-11-20T11:45:26;100798.19;;;1.06;100.00
14295;BME280;7231;59.370;18.016;2022-11-20T11:47:56;100805.34;;;1.10;100.00
14295;BME280;7231;59.370;18.016;2022-11-20T11:50:25;100800.28;;;1.12;100.00
14295;BME280;7231;59.370;18.016;2022-11-20T11:52:58;100793.34;;;1.11;100.00
14295;BME280;7231;59.370;18.016;2022-11-20T11:55:35;100795.72;;;1.08;100.00
14295;BME280;7231;59.370;18.016;2022-11-20T11:58:14;100751.13;;;0.84;100.00
14295;BME280;7231;59.370;18.016;2022-11-20T12:00:50;100748.34;;;0.81;100.00
14295;BME280;7231;59.370;18.016;2022-11-20T12:03:24;100749.44;;;0.84;100.00
14295;BME280;7231;59.370;18.016;2022-11-20T12:05:57;100782.41;;;1.02;100.00
14295;BME280;7231;59.370;18.016;2022-11-20T12:08:31;100773.28;;;0.93;100.00
14295;BME280;7231;59.370;18.016;2022-11-20T12:11:05;100774.47;;;0.98;100.00
14295;BME280;7231;59.370;18.016;2022-11-20T12:13:44;100775.25;;;0.97;100.00
14295;BME280;7231;59.370;18.016;2022-11-20T12:16:18;100768.13;;;0.93;100.00
14295;BME280;7231;59.370;18.016;2022-11-20T12:18:49;100769.69;;;0.91;100.00
14295;BME280;7231;59.370;18.016;2022-11-20T12:21:19;100772.19;;;0.90;100.00
14295;BME280;7231;59.370;18.016;2022-11-20T12:23:56;100759.56;;;0.81;100.00
14295;BME280;7231;59.370;18.016;2022-11-20T12:26:38;100761.56;;;0.85;100.00
14295;BME280;7231;59.370;18.016;2022-11-20T12:29:17;100742.09;;;0.77;100.00
14295;BME280;7231;59.370;18.016;2022-11-20T12:32:09;100755.22;;;0.80;100.00
14295;BME280;7231;59.370;18.016;2022-11-20T12:34:53;100749.84;;;0.77;100.00
14295;BME280;7231;59.370;18.016;2022-11-20T12:37:33;100746.06;;;0.72;100.00
14295;BME280;7231;59.370;18.016;2022-11-20T12:40:18;100759.56;;;0.68;100.00
14295;BME280;7231;59.370;18.016;2022-11-20T12:42:57;100749.94;;;0.65;100.00
14295;BME280;7231;59.370;18.016;2022-11-20T12:46:08;100747.06;;;0.61;100.00
14295;BME280;7231;59.370;18.016;2022-11-20T12:48:49;100741.09;;;0.62;100.00
14295;BME280;7231;59.370;18.016;2022-11-20T12:51:43;100737.44;;;0.58;100.00
14295;BME280;7231;59.370;18.016;2022-11-20T12:54:39;100729.88;;;0.61;100.00
14295;BME280;7231;59.370;18.016;2022-11-20T12:57:15;100734.34;;;0.64;100.00
14295;BME280;7231;59.370;18.016;2022-11-20T13:00:07;100733.66;;;0.67;100.00
14295;BME280;7231;59.370;18.016;2022-11-20T13:02:44;100706.25;;;0.55;100.00
14295;BME280;7231;59.370;18.016;2022-11-20T13:05:21;100721.84;;;0.70;100.00
14295;BME280;7231;59.370;18.016;2022-11-20T13:07:53;100719.38;;;0.72;100.00
14295;BME280;7231;59.370;18.016;2022-11-20T13:10:27;100712.53;;;0.72;100.00
14295;BME280;7231;59.370;18.016;2022-11-20T13:13:03;100715.41;;;0.77;100.00